MSC Caracas — DGZN — position and weather

sailwx.info

Track history (hours):
 
Tides and Currents Weather Stations Pressure Air Temp Water Temp Dewpoint Dewpoint Depression Visibility Wind Speed Wind Dir Waves Ship Positions

MSC Caracas

Last reported at 2016-Aug-28 20:08 UTC. Time now 2016-Aug-29 05:26 UTC.
Position N 35°58' W 005°37'.

Length 207.4 m; beam 29.8 m; draft 11.4 m.

Type: Ship (hazmat cat A). MMSI: 211283670.

Date/timePositionNaut miles runAvg speedWind from/ knotsBaromVisibWave heightAir tempDewpointWater temp
2016-Aug-28 20:08N 35°58' W 005°37'913.4
2016-Aug-28 19:26N 36°01' W 005°26'8 0.3
2016-Aug-27 15:25N 36°08' W 005°25'0 0.2
2016-Aug-27 14:25N 36°08' W 005°25'0 0.1
2016-Aug-27 13:16N 36°08' W 005°25'0 0.0
2016-Aug-27 12:25N 36°08' W 005°25'0 0.0
2016-Aug-27 04:19N 36°08' W 005°25'0 0.0
2016-Aug-27 03:31N 36°08' W 005°25'0 0.0
2016-Aug-27 01:04N 36°08' W 005°25'0 0.0
2016-Aug-26 19:19N 36°08' W 005°25'0 0.0
2016-Aug-26 09:10N 36°08' W 005°25'2 3.0
2016-Aug-26 08:33N 36°07' W 005°24'6 6.1
2016-Aug-26 07:33N 36°01' W 005°25'  
2016-Aug-21 05:24N 35°32' W 006°54'18 9.2
2016-Aug-21 03:27N 35°19' W 007°09'9 9.7
2016-Aug-21 02:33N 35°13' W 007°16'10 9.6
2016-Aug-21 01:32N 35°06' W 007°24'19 9.4
2016-Aug-20 23:33N 34°52' W 007°40'212 9.2
2016-Aug-20 00:26N 32°07' W 010°19'715.7
2016-Aug-20 00:00N 32°00' W 010°18'54 8.1 040 / 171017.0 5.4 22.019.8
2016-Aug-19 17:18N 31°18' W 010°59'37 9.4
2016-Aug-19 13:19N 30°48' W 011°24'8 9.9
2016-Aug-19 12:33N 30°42' W 011°29'115 9.1
2016-Aug-19 00:00N 29°06' W 012°42'   040 / 121016.510.8 22.518.8
Track history (hours):
 
Tides and Currents Weather Stations Pressure Air Temp Water Temp Dewpoint Dewpoint Depression Visibility Wind Speed Wind Dir Waves Ship Positions

MSC Caracas

Last reported at 2016-Aug-28 20:08 UTC. Time now 2016-Aug-29 05:26 UTC.
Position N 35°58' W 005°37'.

Length 207.4 m; beam 29.8 m; draft 11.4 m.

Type: Ship (hazmat cat A). MMSI: 211283670.

Date/timePositionNaut miles runAvg speedWind from/ knotsBaromVisibWave heightAir tempDewpointWater temp
2016-Aug-28 20:08N 35°58' W 005°37'913.4
2016-Aug-28 19:26N 36°01' W 005°26'8 0.3
2016-Aug-27 15:25N 36°08' W 005°25'0 0.2
2016-Aug-27 14:25N 36°08' W 005°25'0 0.1
2016-Aug-27 13:16N 36°08' W 005°25'0 0.0
2016-Aug-27 12:25N 36°08' W 005°25'0 0.0
2016-Aug-27 04:19N 36°08' W 005°25'0 0.0
2016-Aug-27 03:31N 36°08' W 005°25'0 0.0
2016-Aug-27 01:04N 36°08' W 005°25'0 0.0
2016-Aug-26 19:19N 36°08' W 005°25'0 0.0
2016-Aug-26 09:10N 36°08' W 005°25'2 3.0
2016-Aug-26 08:33N 36°07' W 005°24'6 6.1
2016-Aug-26 07:33N 36°01' W 005°25'  
2016-Aug-21 05:24N 35°32' W 006°54'18 9.2
2016-Aug-21 03:27N 35°19' W 007°09'9 9.7
2016-Aug-21 02:33N 35°13' W 007°16'10 9.6
2016-Aug-21 01:32N 35°06' W 007°24'19 9.4
2016-Aug-20 23:33N 34°52' W 007°40'212 9.2
2016-Aug-20 00:26N 32°07' W 010°19'715.7
2016-Aug-20 00:00N 32°00' W 010°18'54 8.1 040 / 171017.0 5.4 22.019.8
2016-Aug-19 17:18N 31°18' W 010°59'37 9.4
2016-Aug-19 13:19N 30°48' W 011°24'8 9.9
2016-Aug-19 12:33N 30°42' W 011°29'115 9.1
2016-Aug-19 00:00N 29°06' W 012°42'   040 / 121016.510.8 22.518.8

Dump ship's entire track history